OICI  Ilam  Airport

Ilam, Iran

Add Bookmark
ICAO OICI
IATA IIL
Type Airport
Status Operational
Latitude
33° 35' 11" N
33.586601
Longitude
46° 24' 17" E
46.404800
Local (DST + 5) UTC (GMT + 4)
Apr 25, 2015 08:28 Apr 25, 2015 15:58
Sunrise-Sunset Local UTC
Begin Civil Twilight 06:14 01:44
Sunrise 06:40 02:10
Sunset 08:03 15:33
End Civil Twilight 08:29 15:59
VFR
VFR
MVFR
MVFR
IFR
VFR
LIFR
VFR
Unknown
Unavailable

Current Weather

METAR Observed VFR
OICI 251500Z 29010KT CAVOK 16/M08 Q1020 A3015 Sat, Apr 25, 2015 @ 15:00 UTC
(58 Minutes ago)
Visual Flight Rules
Wind Visibility Conditions
290° at 10 knots (19 kph) 10 km or more
  • No significant weather
Temperatures Readings Precipitation
Current Temp
16°C
61°F
Dewpoint
-8°C
18°F
Humidity 19%
Altimeter 30.12" Hg
Sea Level Pressure 1,020 mb
Field Elevation
1,343 m
4,406 ft
None Recorded
-
-

CheckWX.com is intended as a tool to help pilots better visualize weather data. It is not intended as a substitute for an official weather briefing obtained from a Flight Service Station. CheckWX.com does not meet the FAA requirements for an official pre-flight weather briefing. Therefore, it's important that pilots still call and obtain an official FSS pre-flight weather briefing.

© 2007-2015 CheckWX.com
15:58:03 UTC